sensor_id;sensor_type;location;lat;lon;timestamp;temperature;humidity
62573;DHT22;48626;51.678;5.806;2023-08-06T00:00:17;16.90;99.90
62573;DHT22;48626;51.678;5.806;2023-08-06T00:02:42;16.90;99.90
62573;DHT22;48626;51.678;5.806;2023-08-06T00:05:08;16.90;99.90
62573;DHT22;48626;51.678;5.806;2023-08-06T00:07:34;16.90;99.90
62573;DHT22;48626;51.678;5.806;2023-08-06T00:09:59;16.90;99.90
62573;DHT22;48626;51.678;5.806;2023-08-06T00:12:25;16.90;99.90
62573;DHT22;48626;51.678;5.806;2023-08-06T00:14:52;16.90;99.90
62573;DHT22;48626;51.678;5.806;2023-08-06T00:17:18;16.90;99.90
62573;DHT22;48626;51.678;5.806;2023-08-06T00:19:43;16.90;99.90
62573;DHT22;48626;51.678;5.806;2023-08-06T00:22:09;16.90;99.90
62573;DHT22;48626;51.678;5.806;2023-08-06T00:24:35;16.90;99.90
62573;DHT22;48626;51.678;5.806;2023-08-06T00:27:01;16.90;99.90
62573;DHT22;48626;51.678;5.806;2023-08-06T00:29:27;16.90;99.90
62573;DHT22;48626;51.678;5.806;2023-08-06T00:31:52;16.90;99.90
62573;DHT22;48626;51.678;5.806;2023-08-06T00:34:18;16.90;99.90
62573;DHT22;48626;51.678;5.806;2023-08-06T00:36:43;16.90;99.90
62573;DHT22;48626;51.678;5.806;2023-08-06T00:39:09;16.90;99.90
62573;DHT22;48626;51.678;5.806;2023-08-06T00:41:35;16.90;99.90
62573;DHT22;48626;51.678;5.806;2023-08-06T00:44:01;16.80;99.90
62573;DHT22;48626;51.678;5.806;2023-08-06T00:46:27;16.90;99.90
62573;DHT22;48626;51.678;5.806;2023-08-06T00:48:53;16.80;99.90
62573;DHT22;48626;51.678;5.806;2023-08-06T00:51:19;16.80;99.90
62573;DHT22;48626;51.678;5.806;2023-08-06T00:53:45;16.80;99.90
62573;DHT22;48626;51.678;5.806;2023-08-06T00:56:12;16.80;99.90
62573;DHT22;48626;51.678;5.806;2023-08-06T00:58:38;16.80;99.90
62573;DHT22;48626;51.678;5.806;2023-08-06T01:01:04;16.80;99.90
62573;DHT22;48626;51.678;5.806;2023-08-06T01:03:30;16.80;99.90
62573;DHT22;48626;51.678;5.806;2023-08-06T01:05:56;16.80;99.90
62573;DHT22;48626;51.678;5.806;2023-08-06T01:11:28;16.80;99.90
62573;DHT22;48626;51.678;5.806;2023-08-06T01:14:02;16.80;99.90
62573;DHT22;48626;51.678;5.806;2023-08-06T01:16:30;16.80;99.90
62573;DHT22;48626;51.678;5.806;2023-08-06T01:18:58;16.80;99.90
62573;DHT22;48626;51.678;5.806;2023-08-06T01:21:24;16.80;99.90
62573;DHT22;48626;51.678;5.806;2023-08-06T01:23:49;16.80;99.90
62573;DHT22;48626;51.678;5.806;2023-08-06T01:26:30;16.80;99.90
62573;DHT22;48626;51.678;5.806;2023-08-06T01:29:28;16.80;99.90
62573;DHT22;48626;51.678;5.806;2023-08-06T01:31:57;16.90;99.90
62573;DHT22;48626;51.678;5.806;2023-08-06T01:34:26;16.80;99.90
62573;DHT22;48626;51.678;5.806;2023-08-06T01:36:53;16.80;99.90
62573;DHT22;48626;51.678;5.806;2023-08-06T01:39:19;16.90;99.90
62573;DHT22;48626;51.678;5.806;2023-08-06T01:41:48;16.90;99.90
62573;DHT22;48626;51.678;5.806;2023-08-06T01:44:14;16.90;99.90
62573;DHT22;48626;51.678;5.806;2023-08-06T01:46:40;16.90;99.90
62573;DHT22;48626;51.678;5.806;2023-08-06T01:49:06;16.90;99.90
62573;DHT22;48626;51.678;5.806;2023-08-06T01:51:31;16.90;99.90
62573;DHT22;48626;51.678;5.806;2023-08-06T01:53:57;16.90;99.90
62573;DHT22;48626;51.678;5.806;2023-08-06T01:56:22;16.90;99.90
62573;DHT22;48626;51.678;5.806;2023-08-06T01:58:48;16.90;99.90
62573;DHT22;48626;51.678;5.806;2023-08-06T02:01:14;16.90;99.90
62573;DHT22;48626;51.678;5.806;2023-08-06T02:03:39;16.80;99.90
62573;DHT22;48626;51.678;5.806;2023-08-06T02:06:05;16.80;99.90
62573;DHT22;48626;51.678;5.806;2023-08-06T02:08:31;16.80;99.90
62573;DHT22;48626;51.678;5.806;2023-08-06T02:10:56;16.80;99.90
62573;DHT22;48626;51.678;5.806;2023-08-06T02:13:23;16.80;99.90
62573;DHT22;48626;51.678;5.806;2023-08-06T02:15:49;16.70;99.90
62573;DHT22;48626;51.678;5.806;2023-08-06T02:18:15;16.80;99.90
62573;DHT22;48626;51.678;5.806;2023-08-06T02:20:42;16.80;99.90
62573;DHT22;48626;51.678;5.806;2023-08-06T02:23:08;16.80;99.90
62573;DHT22;48626;51.678;5.806;2023-08-06T02:25:34;16.80;99.90
62573;DHT22;48626;51.678;5.806;2023-08-06T02:28:00;16.80;99.90
62573;DHT22;48626;51.678;5.806;2023-08-06T02:30:25;16.70;99.90
62573;DHT22;48626;51.678;5.806;2023-08-06T02:32:52;16.70;99.90
62573;DHT22;48626;51.678;5.806;2023-08-06T02:35:17;16.70;99.90
62573;DHT22;48626;51.678;5.806;2023-08-06T02:37:43;16.60;99.90
62573;DHT22;48626;51.678;5.806;2023-08-06T02:40:09;16.60;99.90
62573;DHT22;48626;51.678;5.806;2023-08-06T02:42:35;16.60;99.90
62573;DHT22;48626;51.678;5.806;2023-08-06T02:45:00;16.60;99.90
62573;DHT22;48626;51.678;5.806;2023-08-06T02:47:26;16.70;99.90
62573;DHT22;48626;51.678;5.806;2023-08-06T02:49:51;16.60;99.90
62573;DHT22;48626;51.678;5.806;2023-08-06T02:52:17;16.60;99.90
62573;DHT22;48626;51.678;5.806;2023-08-06T02:54:43;16.60;99.90
62573;DHT22;48626;51.678;5.806;2023-08-06T02:57:09;16.60;99.90
62573;DHT22;48626;51.678;5.806;2023-08-06T02:59:34;16.60;99.90
62573;DHT22;48626;51.678;5.806;2023-08-06T03:02:00;16.60;99.90
62573;DHT22;48626;51.678;5.806;2023-08-06T03:04:26;16.50;99.90
62573;DHT22;48626;51.678;5.806;2023-08-06T03:06:51;16.60;99.90
62573;DHT22;48626;51.678;5.806;2023-08-06T03:09:17;16.60;99.90
62573;DHT22;48626;51.678;5.806;2023-08-06T03:11:43;16.60;99.90
62573;DHT22;48626;51.678;5.806;2023-08-06T03:14:09;16.60;99.90
62573;DHT22;48626;51.678;5.806;2023-08-06T03:16:35;16.60;99.90
62573;DHT22;48626;51.678;5.806;2023-08-06T03:19:00;16.60;99.90
62573;DHT22;48626;51.678;5.806;2023-08-06T03:21:26;16.60;99.90
62573;DHT22;48626;51.678;5.806;2023-08-06T03:23:52;16.60;99.90
62573;DHT22;48626;51.678;5.806;2023-08-06T03:26:18;16.60;99.90
62573;DHT22;48626;51.678;5.806;2023-08-06T03:28:43;16.60;99.90
62573;DHT22;48626;51.678;5.806;2023-08-06T03:31:09;16.60;99.90
62573;DHT22;48626;51.678;5.806;2023-08-06T03:33:35;16.60;99.90
62573;DHT22;48626;51.678;5.806;2023-08-06T03:36:01;16.70;99.90
62573;DHT22;48626;51.678;5.806;2023-08-06T03:38:27;16.70;99.90
62573;DHT22;48626;51.678;5.806;2023-08-06T03:40:53;16.70;99.90
62573;DHT22;48626;51.678;5.806;2023-08-06T03:43:19;16.70;99.90
62573;DHT22;48626;51.678;5.806;2023-08-06T03:45:44;16.70;99.90
62573;DHT22;48626;51.678;5.806;2023-08-06T03:48:10;16.70;99.90
62573;DHT22;48626;51.678;5.806;2023-08-06T03:50:36;16.70;99.90
62573;DHT22;48626;51.678;5.806;2023-08-06T03:53:02;16.70;99.90
62573;DHT22;48626;51.678;5.806;2023-08-06T03:55:28;16.70;99.90
62573;DHT22;48626;51.678;5.806;2023-08-06T03:57:53;16.60;99.90
62573;DHT22;48626;51.678;5.806;2023-08-06T04:00:19;16.60;99.90
62573;DHT22;48626;51.678;5.806;2023-08-06T04:02:45;16.60;99.90
62573;DHT22;48626;51.678;5.806;2023-08-06T04:05:12;16.60;99.90
62573;DHT22;48626;51.678;5.806;2023-08-06T04:07:37;16.60;99.90
62573;DHT22;48626;51.678;5.806;2023-08-06T04:10:04;16.60;99.90
62573;DHT22;48626;51.678;5.806;2023-08-06T04:12:31;16.50;99.90
62573;DHT22;48626;51.678;5.806;2023-08-06T04:14:58;16.50;99.90
62573;DHT22;48626;51.678;5.806;2023-08-06T04:17:24;16.50;99.90
62573;DHT22;48626;51.678;5.806;2023-08-06T04:19:51;16.50;99.90
62573;DHT22;48626;51.678;5.806;2023-08-06T04:22:17;16.50;99.90
62573;DHT22;48626;51.678;5.806;2023-08-06T04:24:43;16.50;99.90
62573;DHT22;48626;51.678;5.806;2023-08-06T04:27:10;16.50;99.90
62573;DHT22;48626;51.678;5.806;2023-08-06T04:29:36;16.50;99.90
62573;DHT22;48626;51.678;5.806;2023-08-06T04:32:03;16.50;99.90
62573;DHT22;48626;51.678;5.806;2023-08-06T04:34:29;16.50;99.90
62573;DHT22;48626;51.678;5.806;2023-08-06T04:36:54;16.50;99.90
62573;DHT22;48626;51.678;5.806;2023-08-06T04:39:20;16.50;99.90
62573;DHT22;48626;51.678;5.806;2023-08-06T04:41:46;16.50;99.90
62573;DHT22;48626;51.678;5.806;2023-08-06T04:44:11;16.50;99.90
62573;DHT22;48626;51.678;5.806;2023-08-06T04:46:37;16.50;99.90
62573;DHT22;48626;51.678;5.806;2023-08-06T04:49:02;16.50;99.90
62573;DHT22;48626;51.678;5.806;2023-08-06T04:51:28;16.50;99.90
62573;DHT22;48626;51.678;5.806;2023-08-06T04:53:54;16.60;99.90
62573;DHT22;48626;51.678;5.806;2023-08-06T04:56:19;16.60;99.90
62573;DHT22;48626;51.678;5.806;2023-08-06T04:58:45;16.60;99.90
62573;DHT22;48626;51.678;5.806;2023-08-06T05:01:11;16.60;99.90
62573;DHT22;48626;51.678;5.806;2023-08-06T05:03:36;16.60;99.90
62573;DHT22;48626;51.678;5.806;2023-08-06T05:06:02;16.60;99.90
62573;DHT22;48626;51.678;5.806;2023-08-06T05:08:27;16.60;99.90
62573;DHT22;48626;51.678;5.806;2023-08-06T05:10:53;16.70;99.90
62573;DHT22;48626;51.678;5.806;2023-08-06T05:13:19;16.70;99.90
62573;DHT22;48626;51.678;5.806;2023-08-06T05:15:44;16.80;99.90
62573;DHT22;48626;51.678;5.806;2023-08-06T05:18:12;16.90;99.90
62573;DHT22;48626;51.678;5.806;2023-08-06T05:20:39;16.90;99.90
62573;DHT22;48626;51.678;5.806;2023-08-06T05:23:04;16.90;99.90
62573;DHT22;48626;51.678;5.806;2023-08-06T05:25:30;17.00;99.90
62573;DHT22;48626;51.678;5.806;2023-08-06T05:27:56;17.00;99.90
62573;DHT22;48626;51.678;5.806;2023-08-06T05:30:21;17.10;99.90
62573;DHT22;48626;51.678;5.806;2023-08-06T05:32:47;17.10;99.90
62573;DHT22;48626;51.678;5.806;2023-08-06T05:35:13;17.10;99.90
62573;DHT22;48626;51.678;5.806;2023-08-06T05:37:38;17.20;99.90
62573;DHT22;48626;51.678;5.806;2023-08-06T05:40:04;17.20;99.90
62573;DHT22;48626;51.678;5.806;2023-08-06T05:42:30;17.30;99.90
62573;DHT22;48626;51.678;5.806;2023-08-06T05:44:56;17.40;99.90
62573;DHT22;48626;51.678;5.806;2023-08-06T05:47:21;17.40;99.90
62573;DHT22;48626;51.678;5.806;2023-08-06T05:49:47;17.50;99.90
62573;DHT22;48626;51.678;5.806;2023-08-06T05:52:13;17.60;99.90
62573;DHT22;48626;51.678;5.806;2023-08-06T05:54:38;17.60;99.90
62573;DHT22;48626;51.678;5.806;2023-08-06T05:57:06;17.60;99.90
62573;DHT22;48626;51.678;5.806;2023-08-06T05:59:31;17.70;99.90
62573;DHT22;48626;51.678;5.806;2023-08-06T06:01:57;17.70;99.90
62573;DHT22;48626;51.678;5.806;2023-08-06T06:04:23;17.80;99.90
62573;DHT22;48626;51.678;5.806;2023-08-06T06:06:48;17.80;99.90
62573;DHT22;48626;51.678;5.806;2023-08-06T06:09:14;17.80;99.90
62573;DHT22;48626;51.678;5.806;2023-08-06T06:11:40;17.80;99.90
62573;DHT22;48626;51.678;5.806;2023-08-06T06:14:05;17.90;99.90
62573;DHT22;48626;51.678;5.806;2023-08-06T06:16:31;17.90;99.90
62573;DHT22;48626;51.678;5.806;2023-08-06T06:18:56;18.00;99.90
62573;DHT22;48626;51.678;5.806;2023-08-06T06:21:23;18.10;99.90
62573;DHT22;48626;51.678;5.806;2023-08-06T06:23:49;18.20;99.90
62573;DHT22;48626;51.678;5.806;2023-08-06T06:26:19;18.30;99.90
62573;DHT22;48626;51.678;5.806;2023-08-06T06:28:45;18.30;99.90
62573;DHT22;48626;51.678;5.806;2023-08-06T06:31:11;18.40;99.90
62573;DHT22;48626;51.678;5.806;2023-08-06T06:33:36;18.40;99.90
62573;DHT22;48626;51.678;5.806;2023-08-06T06:36:02;18.50;99.90
62573;DHT22;48626;51.678;5.806;2023-08-06T06:38:33;18.60;99.90
62573;DHT22;48626;51.678;5.806;2023-08-06T06:40:59;18.60;99.90
62573;DHT22;48626;51.678;5.806;2023-08-06T06:43:26;18.70;99.90
62573;DHT22;48626;51.678;5.806;2023-08-06T06:45:59;18.80;99.90
62573;DHT22;48626;51.678;5.806;2023-08-06T06:48:29;18.80;99.90
62573;DHT22;48626;51.678;5.806;2023-08-06T06:50:55;18.80;99.90
62573;DHT22;48626;51.678;5.806;2023-08-06T06:53:21;18.70;99.90
62573;DHT22;48626;51.678;5.806;2023-08-06T06:55:56;18.60;99.90
62573;DHT22;48626;51.678;5.806;2023-08-06T06:58:21;18.60;99.90
62573;DHT22;48626;51.678;5.806;2023-08-06T07:00:48;18.50;99.90
62573;DHT22;48626;51.678;5.806;2023-08-06T07:03:14;18.50;99.90
62573;DHT22;48626;51.678;5.806;2023-08-06T07:05:40;18.40;99.90
62573;DHT22;48626;51.678;5.806;2023-08-06T07:08:06;18.40;99.90
62573;DHT22;48626;51.678;5.806;2023-08-06T07:10:36;18.30;99.90
62573;DHT22;48626;51.678;5.806;2023-08-06T07:13:02;18.30;99.90
62573;DHT22;48626;51.678;5.806;2023-08-06T07:15:28;18.30;99.90
62573;DHT22;48626;51.678;5.806;2023-08-06T07:17:53;18.30;99.90
62573;DHT22;48626;51.678;5.806;2023-08-06T07:20:19;18.30;99.90
62573;DHT22;48626;51.678;5.806;2023-08-06T07:22:44;18.30;99.90
62573;DHT22;48626;51.678;5.806;2023-08-06T07:25:10;18.30;99.90
62573;DHT22;48626;51.678;5.806;2023-08-06T07:27:36;18.40;99.90
62573;DHT22;48626;51.678;5.806;2023-08-06T07:30:02;18.40;99.90
62573;DHT22;48626;51.678;5.806;2023-08-06T07:32:28;18.50;99.90
62573;DHT22;48626;51.678;5.806;2023-08-06T07:34:54;18.50;99.90
62573;DHT22;48626;51.678;5.806;2023-08-06T07:37:24;18.60;99.90
62573;DHT22;48626;51.678;5.806;2023-08-06T07:39:50;18.60;99.90
62573;DHT22;48626;51.678;5.806;2023-08-06T07:42:16;18.70;99.90
62573;DHT22;48626;51.678;5.806;2023-08-06T07:44:41;18.70;99.90
62573;DHT22;48626;51.678;5.806;2023-08-06T07:47:07;18.70;99.90
62573;DHT22;48626;51.678;5.806;2023-08-06T07:49:33;18.80;99.90
62573;DHT22;48626;51.678;5.806;2023-08-06T07:51:58;18.80;99.90
62573;DHT22;48626;51.678;5.806;2023-08-06T07:54:24;18.70;99.90
62573;DHT22;48626;51.678;5.806;2023-08-06T07:56:50;18.70;99.90
62573;DHT22;48626;51.678;5.806;2023-08-06T07:59:16;18.70;99.90
62573;DHT22;48626;51.678;5.806;2023-08-06T08:01:42;18.60;99.90
62573;DHT22;48626;51.678;5.806;2023-08-06T08:04:07;18.50;99.90
62573;DHT22;48626;51.678;5.806;2023-08-06T08:06:33;18.30;99.90
62573;DHT22;48626;51.678;5.806;2023-08-06T08:08:59;18.10;99.90
62573;DHT22;48626;51.678;5.806;2023-08-06T08:11:26;18.00;99.90
62573;DHT22;48626;51.678;5.806;2023-08-06T08:13:51;17.90;99.90
62573;DHT22;48626;51.678;5.806;2023-08-06T08:16:17;17.80;99.90
62573;DHT22;48626;51.678;5.806;2023-08-06T08:21:10;17.80;99.90
62573;DHT22;48626;51.678;5.806;2023-08-06T08:23:36;17.70;99.90
62573;DHT22;48626;51.678;5.806;2023-08-06T08:26:02;17.70;99.90
62573;DHT22;48626;51.678;5.806;2023-08-06T08:28:29;17.60;99.90
62573;DHT22;48626;51.678;5.806;2023-08-06T08:30:55;17.50;99.90
62573;DHT22;48626;51.678;5.806;2023-08-06T08:33:22;17.50;99.90
62573;DHT22;48626;51.678;5.806;2023-08-06T08:35:47;17.40;99.90
62573;DHT22;48626;51.678;5.806;2023-08-06T08:38:13;17.40;99.90
62573;DHT22;48626;51.678;5.806;2023-08-06T08:40:47;17.40;99.90
62573;DHT22;48626;51.678;5.806;2023-08-06T08:43:14;17.40;99.90
62573;DHT22;48626;51.678;5.806;2023-08-06T08:45:42;17.30;99.90
62573;DHT22;48626;51.678;5.806;2023-08-06T08:48:11;17.20;99.90
62573;DHT22;48626;51.678;5.806;2023-08-06T08:50:39;17.20;99.90
62573;DHT22;48626;51.678;5.806;2023-08-06T08:53:05;17.20;99.90
62573;DHT22;48626;51.678;5.806;2023-08-06T08:55:31;17.20;99.90
62573;DHT22;48626;51.678;5.806;2023-08-06T08:57:57;17.10;99.90
62573;DHT22;48626;51.678;5.806;2023-08-06T09:00:24;17.00;99.90
62573;DHT22;48626;51.678;5.806;2023-08-06T09:02:50;16.80;99.90
62573;DHT22;48626;51.678;5.806;2023-08-06T09:05:18;16.70;99.90
62573;DHT22;48626;51.678;5.806;2023-08-06T09:07:48;16.50;99.90
62573;DHT22;48626;51.678;5.806;2023-08-06T09:10:16;16.30;99.90
62573;DHT22;48626;51.678;5.806;2023-08-06T09:12:47;16.30;99.90
62573;DHT22;48626;51.678;5.806;2023-08-06T09:15:13;16.20;99.90
62573;DHT22;48626;51.678;5.806;2023-08-06T09:17:39;16.10;99.90
62573;DHT22;48626;51.678;5.806;2023-08-06T09:20:17;16.10;99.90
62573;DHT22;48626;51.678;5.806;2023-08-06T09:22:43;16.10;99.90
62573;DHT22;48626;51.678;5.806;2023-08-06T09:25:11;16.00;99.90
62573;DHT22;48626;51.678;5.806;2023-08-06T09:27:39;15.90;99.90
62573;DHT22;48626;51.678;5.806;2023-08-06T09:30:06;15.90;99.90
62573;DHT22;48626;51.678;5.806;2023-08-06T09:32:45;15.90;99.90
62573;DHT22;48626;51.678;5.806;2023-08-06T09:35:18;15.90;99.90
62573;DHT22;48626;51.678;5.806;2023-08-06T09:37:44;15.90;99.90
62573;DHT22;48626;51.678;5.806;2023-08-06T09:40:28;15.90;99.90
62573;DHT22;48626;51.678;5.806;2023-08-06T09:42:54;15.90;99.90
62573;DHT22;48626;51.678;5.806;2023-08-06T09:45:20;15.90;99.90
62573;DHT22;48626;51.678;5.806;2023-08-06T09:47:48;15.90;99.90
62573;DHT22;48626;51.678;5.806;2023-08-06T09:50:18;16.00;99.90
62573;DHT22;48626;51.678;5.806;2023-08-06T09:52:44;16.00;99.90
62573;DHT22;48626;51.678;5.806;2023-08-06T09:55:14;15.90;99.90
62573;DHT22;48626;51.678;5.806;2023-08-06T09:57:43;16.00;99.90
62573;DHT22;48626;51.678;5.806;2023-08-06T10:00:10;16.00;99.90
62573;DHT22;48626;51.678;5.806;2023-08-06T10:02:38;16.00;99.90
62573;DHT22;48626;51.678;5.806;2023-08-06T10:05:05;16.10;99.90
62573;DHT22;48626;51.678;5.806;2023-08-06T10:07:31;16.10;99.90
62573;DHT22;48626;51.678;5.806;2023-08-06T10:09:58;16.10;99.90
62573;DHT22;48626;51.678;5.806;2023-08-06T10:12:26;16.20;99.90
62573;DHT22;48626;51.678;5.806;2023-08-06T10:14:54;16.20;99.90
62573;DHT22;48626;51.678;5.806;2023-08-06T10:17:22;16.20;99.90
62573;DHT22;48626;51.678;5.806;2023-08-06T10:19:50;16.10;99.90
62573;DHT22;48626;51.678;5.806;2023-08-06T10:22:17;16.20;99.90
62573;DHT22;48626;51.678;5.806;2023-08-06T10:24:49;16.20;99.90
62573;DHT22;48626;51.678;5.806;2023-08-06T10:32:50;16.40;99.90
62573;DHT22;48626;51.678;5.806;2023-08-06T10:35:30;16.40;99.90
62573;DHT22;48626;51.678;5.806;2023-08-06T10:38:03;16.50;99.90
62573;DHT22;48626;51.678;5.806;2023-08-06T10:40:29;16.60;99.90
62573;DHT22;48626;51.678;5.806;2023-08-06T10:42:58;16.60;99.90
62573;DHT22;48626;51.678;5.806;2023-08-06T10:45:24;16.70;99.90
62573;DHT22;48626;51.678;5.806;2023-08-06T10:47:54;16.60;99.90
62573;DHT22;48626;51.678;5.806;2023-08-06T10:50:20;16.70;99.90
62573;DHT22;48626;51.678;5.806;2023-08-06T10:52:47;16.70;99.90
62573;DHT22;48626;51.678;5.806;2023-08-06T10:55:30;16.70;99.90
62573;DHT22;48626;51.678;5.806;2023-08-06T10:57:56;16.80;99.90
62573;DHT22;48626;51.678;5.806;2023-08-06T11:00:23;16.80;99.90
62573;DHT22;48626;51.678;5.806;2023-08-06T11:02:49;16.80;99.90
62573;DHT22;48626;51.678;5.806;2023-08-06T11:05:15;16.80;99.90
62573;DHT22;48626;51.678;5.806;2023-08-06T11:07:41;16.80;99.90
62573;DHT22;48626;51.678;5.806;2023-08-06T11:10:12;16.80;99.90
62573;DHT22;48626;51.678;5.806;2023-08-06T11:12:38;16.80;99.90
62573;DHT22;48626;51.678;5.806;2023-08-06T11:15:04;16.90;99.90
62573;DHT22;48626;51.678;5.806;2023-08-06T11:17:33;16.90;99.90
62573;DHT22;48626;51.678;5.806;2023-08-06T11:20:00;16.90;99.90
62573;DHT22;48626;51.678;5.806;2023-08-06T11:22:26;16.80;99.90
62573;DHT22;48626;51.678;5.806;2023-08-06T11:24:53;16.80;99.90
62573;DHT22;48626;51.678;5.806;2023-08-06T11:27:19;16.70;99.90
62573;DHT22;48626;51.678;5.806;2023-08-06T11:29:45;16.70;99.90
62573;DHT22;48626;51.678;5.806;2023-08-06T11:32:11;16.60;99.90
62573;DHT22;48626;51.678;5.806;2023-08-06T11:34:38;16.60;99.90
62573;DHT22;48626;51.678;5.806;2023-08-06T11:37:05;16.60;99.90
62573;DHT22;48626;51.678;5.806;2023-08-06T11:39:38;16.60;99.90
62573;DHT22;48626;51.678;5.806;2023-08-06T11:42:05;16.60;99.90
62573;DHT22;48626;51.678;5.806;2023-08-06T11:44:33;16.70;99.90
62573;DHT22;48626;51.678;5.806;2023-08-06T11:47:01;16.70;99.90
62573;DHT22;48626;51.678;5.806;2023-08-06T11:49:49;16.80;99.90
62573;DHT22;48626;51.678;5.806;2023-08-06T11:58:41;16.80;99.90
62573;DHT22;48626;51.678;5.806;2023-08-06T12:01:07;16.80;99.90
62573;DHT22;48626;51.678;5.806;2023-08-06T12:03:39;16.90;99.90
62573;DHT22;48626;51.678;5.806;2023-08-06T12:06:05;16.90;99.90
62573;DHT22;48626;51.678;5.806;2023-08-06T12:08:31;16.90;99.90
62573;DHT22;48626;51.678;5.806;2023-08-06T12:10:58;17.00;99.90
62573;DHT22;48626;51.678;5.806;2023-08-06T12:13:24;17.00;99.90
62573;DHT22;48626;51.678;5.806;2023-08-06T12:15:50;17.10;99.90
62573;DHT22;48626;51.678;5.806;2023-08-06T12:18:18;17.10;99.90
62573;DHT22;48626;51.678;5.806;2023-08-06T12:20:44;17.20;99.90
62573;DHT22;48626;51.678;5.806;2023-08-06T12:23:10;17.30;99.90
62573;DHT22;48626;51.678;5.806;2023-08-06T12:25:43;17.30;99.90
62573;DHT22;48626;51.678;5.806;2023-08-06T12:28:10;17.30;99.90
62573;DHT22;48626;51.678;5.806;2023-08-06T12:30:36;17.30;99.90
62573;DHT22;48626;51.678;5.806;2023-08-06T12:33:01;17.40;99.90
62573;DHT22;48626;51.678;5.806;2023-08-06T12:35:30;17.40;99.90
62573;DHT22;48626;51.678;5.806;2023-08-06T12:37:56;17.40;99.90
62573;DHT22;48626;51.678;5.806;2023-08-06T12:40:22;17.40;99.90
62573;DHT22;48626;51.678;5.806;2023-08-06T12:42:50;17.40;99.90
62573;DHT22;48626;51.678;5.806;2023-08-06T12:45:16;17.30;99.90
62573;DHT22;48626;51.678;5.806;2023-08-06T12:47:41;17.30;99.90
62573;DHT22;48626;51.678;5.806;2023-08-06T12:50:07;17.20;99.90
62573;DHT22;48626;51.678;5.806;2023-08-06T12:52:33;17.20;99.90
62573;DHT22;48626;51.678;5.806;2023-08-06T12:54:59;17.10;99.90
62573;DHT22;48626;51.678;5.806;2023-08-06T12:57:24;17.10;99.90
62573;DHT22;48626;51.678;5.806;2023-08-06T12:59:50;17.10;99.90
62573;DHT22;48626;51.678;5.806;2023-08-06T13:02:16;17.00;99.90
62573;DHT22;48626;51.678;5.806;2023-08-06T13:04:41;17.00;99.90
62573;DHT22;48626;51.678;5.806;2023-08-06T13:07:07;17.00;99.90
62573;DHT22;48626;51.678;5.806;2023-08-06T13:09:33;17.00;99.90
62573;DHT22;48626;51.678;5.806;2023-08-06T13:11:58;17.00;99.90
62573;DHT22;48626;51.678;5.806;2023-08-06T13:14:25;17.00;99.90
62573;DHT22;48626;51.678;5.806;2023-08-06T13:16:51;17.00;99.90
62573;DHT22;48626;51.678;5.806;2023-08-06T13:19:17;17.00;99.90
62573;DHT22;48626;51.678;5.806;2023-08-06T13:24:17;17.00;99.90
62573;DHT22;48626;51.678;5.806;2023-08-06T13:26:43;17.00;99.90
62573;DHT22;48626;51.678;5.806;2023-08-06T13:29:08;16.90;99.90
62573;DHT22;48626;51.678;5.806;2023-08-06T13:31:35;16.90;99.90
62573;DHT22;48626;51.678;5.806;2023-08-06T13:34:00;16.80;99.90
62573;DHT22;48626;51.678;5.806;2023-08-06T13:36:27;16.80;99.90
62573;DHT22;48626;51.678;5.806;2023-08-06T13:38:52;16.80;99.90
62573;DHT22;48626;51.678;5.806;2023-08-06T13:41:18;16.70;99.90
62573;DHT22;48626;51.678;5.806;2023-08-06T13:43:44;16.70;99.90
62573;DHT22;48626;51.678;5.806;2023-08-06T13:46:11;16.70;99.90
62573;DHT22;48626;51.678;5.806;2023-08-06T13:48:41;16.60;99.90
62573;DHT22;48626;51.678;5.806;2023-08-06T13:51:07;16.60;99.90
62573;DHT22;48626;51.678;5.806;2023-08-06T13:53:33;16.60;99.90
62573;DHT22;48626;51.678;5.806;2023-08-06T13:55:59;16.60;99.90
62573;DHT22;48626;51.678;5.806;2023-08-06T13:58:24;16.60;99.90
62573;DHT22;48626;51.678;5.806;2023-08-06T14:00:51;16.60;99.90
62573;DHT22;48626;51.678;5.806;2023-08-06T14:03:18;16.60;99.90
62573;DHT22;48626;51.678;5.806;2023-08-06T14:05:44;16.60;99.90
62573;DHT22;48626;51.678;5.806;2023-08-06T14:08:10;16.60;99.90
62573;DHT22;48626;51.678;5.806;2023-08-06T14:10:35;16.60;99.90
62573;DHT22;48626;51.678;5.806;2023-08-06T14:13:01;16.50;99.90
62573;DHT22;48626;51.678;5.806;2023-08-06T14:15:27;16.50;99.90
62573;DHT22;48626;51.678;5.806;2023-08-06T14:17:52;16.50;99.90
62573;DHT22;48626;51.678;5.806;2023-08-06T14:20:18;16.50;99.90
62573;DHT22;48626;51.678;5.806;2023-08-06T14:22:44;16.40;99.90
62573;DHT22;48626;51.678;5.806;2023-08-06T14:25:09;16.50;99.90
62573;DHT22;48626;51.678;5.806;2023-08-06T14:27:35;16.50;99.90
62573;DHT22;48626;51.678;5.806;2023-08-06T14:30:01;16.50;99.90
62573;DHT22;48626;51.678;5.806;2023-08-06T14:32:28;16.50;99.90
62573;DHT22;48626;51.678;5.806;2023-08-06T14:34:54;16.40;99.90
62573;DHT22;48626;51.678;5.806;2023-08-06T14:37:20;16.40;99.90
62573;DHT22;48626;51.678;5.806;2023-08-06T14:39:45;16.40;99.90
62573;DHT22;48626;51.678;5.806;2023-08-06T14:42:11;16.40;99.90
62573;DHT22;48626;51.678;5.806;2023-08-06T14:44:36;16.40;99.90
62573;DHT22;48626;51.678;5.806;2023-08-06T14:47:02;16.40;99.90
62573;DHT22;48626;51.678;5.806;2023-08-06T14:49:28;16.30;99.90
62573;DHT22;48626;51.678;5.806;2023-08-06T14:51:54;16.30;99.90
62573;DHT22;48626;51.678;5.806;2023-08-06T14:54:19;16.30;99.90
62573;DHT22;48626;51.678;5.806;2023-08-06T14:56:45;16.30;99.90
62573;DHT22;48626;51.678;5.806;2023-08-06T14:59:10;16.30;99.90
62573;DHT22;48626;51.678;5.806;2023-08-06T15:01:36;16.30;99.90
62573;DHT22;48626;51.678;5.806;2023-08-06T15:04:02;16.30;99.90
62573;DHT22;48626;51.678;5.806;2023-08-06T15:06:27;16.30;99.90
62573;DHT22;48626;51.678;5.806;2023-08-06T15:08:53;16.40;99.90
62573;DHT22;48626;51.678;5.806;2023-08-06T15:11:23;16.40;99.90
62573;DHT22;48626;51.678;5.806;2023-08-06T15:13:49;16.40;99.90
62573;DHT22;48626;51.678;5.806;2023-08-06T15:16:14;16.30;99.90
62573;DHT22;48626;51.678;5.806;2023-08-06T15:18:40;16.40;99.90
62573;DHT22;48626;51.678;5.806;2023-08-06T15:21:05;16.40;99.90
62573;DHT22;48626;51.678;5.806;2023-08-06T15:23:31;16.40;99.90
62573;DHT22;48626;51.678;5.806;2023-08-06T15:25:57;16.50;99.90
62573;DHT22;48626;51.678;5.806;2023-08-06T15:28:22;16.40;99.90
62573;DHT22;48626;51.678;5.806;2023-08-06T15:30:50;16.50;99.90
62573;DHT22;48626;51.678;5.806;2023-08-06T15:33:17;16.50;99.90
62573;DHT22;48626;51.678;5.806;2023-08-06T15:35:42;16.50;99.90
62573;DHT22;48626;51.678;5.806;2023-08-06T15:38:08;16.50;99.90
62573;DHT22;48626;51.678;5.806;2023-08-06T15:40:33;16.50;99.90
62573;DHT22;48626;51.678;5.806;2023-08-06T15:42:59;16.50;99.90
62573;DHT22;48626;51.678;5.806;2023-08-06T15:45:25;16.50;99.90